createdAt,value
2023-01-08T00:02:03.910Z,9.27
2023-01-08T00:04:30.897Z,9.43
2023-01-08T00:06:57.903Z,9.80
2023-01-08T00:09:24.915Z,9.53
2023-01-08T00:11:51.894Z,9.57
2023-01-08T00:14:18.961Z,9.20
2023-01-08T00:16:46.072Z,9.43
2023-01-08T00:19:13.634Z,9.27
2023-01-08T00:21:40.664Z,8.90
2023-01-08T00:24:07.822Z,8.93
2023-01-08T00:26:34.862Z,9.37
2023-01-08T00:29:01.861Z,8.93
2023-01-08T00:31:28.960Z,8.43
2023-01-08T00:33:55.994Z,8.43
2023-01-08T00:36:23.005Z,8.67
2023-01-08T00:38:50.224Z,8.37
2023-01-08T00:41:17.679Z,7.30
2023-01-08T00:43:44.700Z,8.80
2023-01-08T00:46:11.855Z,8.00
2023-01-08T00:48:39.194Z,8.87
2023-01-08T00:51:08.322Z,8.37
2023-01-08T00:53:35.980Z,8.43
2023-01-08T00:56:05.076Z,8.50
2023-01-08T00:58:32.197Z,7.73
2023-01-08T01:00:59.567Z,7.80
2023-01-08T01:03:26.783Z,7.30
2023-01-08T01:06:04.835Z,8.40
2023-01-08T01:08:32.079Z,7.77
2023-01-08T01:10:59.107Z,7.33
2023-01-08T01:13:26.187Z,7.30
2023-01-08T01:16:00.389Z,8.03
2023-01-08T01:18:27.980Z,6.80
2023-01-08T01:20:55.326Z,7.60
2023-01-08T01:23:22.271Z,7.57
2023-01-08T01:25:49.260Z,7.47
2023-01-08T01:28:16.456Z,8.57
2023-01-08T01:30:43.667Z,7.63
2023-01-08T01:33:10.663Z,8.47
2023-01-08T01:35:37.719Z,7.40
2023-01-08T01:38:04.686Z,7.90
2023-01-08T01:40:31.673Z,7.90
2023-01-08T01:42:58.661Z,6.87
2023-01-08T01:45:28.862Z,7.67
2023-01-08T01:48:03.988Z,7.40
2023-01-08T01:50:36.917Z,7.63
2023-01-08T01:53:14.788Z,6.50
2023-01-08T01:55:43.764Z,7.30
2023-01-08T01:58:17.242Z,7.23
2023-01-08T02:00:44.941Z,7.43
2023-01-08T02:03:14.301Z,7.80
2023-01-08T02:05:59.386Z,7.23
2023-01-08T02:08:44.652Z,6.53
2023-01-08T02:11:17.910Z,6.23
2023-01-08T02:13:55.466Z,6.80
2023-01-08T02:16:45.921Z,7.37
2023-01-08T02:20:05.430Z,7.47
2023-01-08T02:22:40.412Z,7.23
2023-01-08T02:25:54.723Z,8.13
2023-01-08T02:28:22.873Z,7.20
2023-01-08T02:30:50.251Z,7.43
2023-01-08T02:33:17.273Z,6.97
2023-01-08T02:35:55.873Z,7.97
2023-01-08T02:38:24.352Z,6.90
2023-01-08T02:41:04.662Z,6.67
2023-01-08T02:43:46.092Z,6.37
2023-01-08T02:46:23.618Z,6.53
2023-01-08T02:48:57.180Z,7.17
2023-01-08T02:51:43.263Z,6.37
2023-01-08T02:54:18.063Z,6.70
2023-01-08T02:56:49.890Z,7.50
2023-01-08T02:59:19.580Z,6.30
2023-01-08T03:01:47.465Z,6.40
2023-01-08T03:04:19.016Z,7.03
2023-01-08T03:06:46.820Z,7.17
2023-01-08T03:09:15.788Z,6.53
2023-01-08T03:11:58.617Z,6.70
2023-01-08T03:14:33.907Z,7.00
2023-01-08T03:17:28.888Z,7.37
2023-01-08T03:20:01.791Z,7.00
2023-01-08T03:22:33.309Z,6.10
2023-01-08T03:25:03.199Z,6.37
2023-01-08T03:27:33.556Z,7.27
2023-01-08T03:30:00.726Z,7.37
2023-01-08T03:32:31.203Z,6.93
2023-01-08T03:35:00.748Z,6.27
2023-01-08T03:37:34.546Z,6.60
2023-01-08T03:40:08.198Z,6.63
2023-01-08T03:42:35.321Z,6.37
2023-01-08T03:45:03.115Z,5.67
2023-01-08T03:47:33.051Z,5.60
2023-01-08T03:50:08.300Z,5.10
2023-01-08T03:52:35.329Z,5.20
2023-01-08T03:55:02.444Z,5.60
2023-01-08T03:57:30.677Z,5.73
2023-01-08T03:59:57.683Z,5.60
2023-01-08T04:02:24.806Z,5.80
2023-01-08T04:04:51.940Z,5.70
2023-01-08T04:07:18.900Z,6.03
2023-01-08T04:09:45.967Z,5.70
2023-01-08T04:12:13.290Z,5.97
2023-01-08T04:14:40.310Z,5.87
2023-01-08T04:17:07.331Z,5.53
2023-01-08T04:19:34.347Z,5.00
2023-01-08T04:22:01.295Z,5.47
2023-01-08T04:24:28.259Z,5.67
2023-01-08T04:26:55.246Z,5.00
2023-01-08T04:29:22.258Z,5.53
2023-01-08T04:31:49.241Z,5.47
2023-01-08T04:34:16.225Z,4.57
2023-01-08T04:36:43.261Z,5.30
2023-01-08T04:39:11.851Z,5.07
2023-01-08T04:41:38.868Z,5.30
2023-01-08T04:44:05.850Z,4.80
2023-01-08T04:46:32.872Z,4.77
2023-01-08T04:48:59.861Z,4.37
2023-01-08T04:51:26.908Z,4.40
2023-01-08T04:53:53.925Z,5.23
2023-01-08T04:56:20.965Z,5.27
2023-01-08T04:58:48.059Z,4.30
2023-01-08T05:01:26.136Z,4.97
2023-01-08T05:04:02.214Z,5.33
2023-01-08T05:06:30.737Z,4.28
2023-01-08T05:08:58.348Z,4.73
2023-01-08T05:11:25.752Z,4.93
2023-01-08T05:13:53.643Z,4.70
2023-01-08T05:16:21.440Z,4.77
2023-01-08T05:18:49.136Z,4.93
2023-01-08T05:21:16.571Z,4.33
2023-01-08T05:23:46.858Z,4.53
2023-01-08T05:26:14.627Z,4.90
2023-01-08T05:28:41.668Z,4.50
2023-01-08T05:31:09.298Z,4.93
2023-01-08T05:33:36.323Z,5.00
2023-01-08T05:36:11.100Z,4.33
2023-01-08T05:38:38.763Z,4.53
2023-01-08T05:41:06.992Z,4.60
2023-01-08T05:43:34.645Z,4.80
2023-01-08T05:46:03.147Z,4.60
2023-01-08T05:48:31.986Z,4.67
2023-01-08T05:50:58.942Z,4.67
2023-01-08T05:53:26.018Z,4.83
2023-01-08T05:55:52.975Z,4.80
2023-01-08T05:58:20.073Z,5.20
2023-01-08T06:00:47.122Z,5.27
2023-01-08T06:03:14.137Z,5.17
2023-01-08T06:05:41.204Z,5.27
2023-01-08T06:08:08.811Z,5.60
2023-01-08T06:10:38.221Z,5.50
2023-01-08T06:13:09.655Z,5.23
2023-01-08T06:15:40.217Z,5.77
2023-01-08T06:18:07.481Z,5.10
2023-01-08T06:20:39.403Z,5.83
2023-01-08T06:23:06.389Z,5.33
2023-01-08T06:25:33.389Z,5.10
2023-01-08T06:28:00.487Z,5.80
2023-01-08T06:30:27.502Z,5.03
2023-01-08T06:32:58.874Z,6.53
2023-01-08T06:35:27.111Z,6.03
2023-01-08T06:37:57.516Z,5.70
2023-01-08T06:40:24.825Z,6.03
2023-01-08T06:42:51.772Z,5.00
2023-01-08T06:45:18.941Z,5.13
2023-01-08T06:47:46.026Z,5.63
2023-01-08T06:50:13.051Z,5.13
2023-01-08T06:52:40.086Z,4.43
2023-01-08T06:55:07.382Z,5.03
2023-01-08T06:57:34.376Z,5.30
2023-01-08T07:00:01.332Z,6.10
2023-01-08T07:02:31.491Z,5.33
2023-01-08T07:04:58.632Z,5.90
2023-01-08T07:07:25.602Z,5.30
2023-01-08T07:09:52.555Z,6.00
2023-01-08T07:12:19.538Z,5.47
2023-01-08T07:14:46.575Z,5.93
2023-01-08T07:17:13.548Z,5.27
2023-01-08T07:19:43.555Z,6.27
2023-01-08T07:22:10.523Z,5.67
2023-01-08T07:24:37.513Z,6.23
2023-01-08T07:27:04.519Z,6.03
2023-01-08T07:29:31.510Z,5.97
2023-01-08T07:31:58.495Z,6.63
2023-01-08T07:34:25.517Z,5.73
2023-01-08T07:36:52.525Z,6.10
2023-01-08T07:39:19.508Z,6.17
2023-01-08T07:41:46.596Z,6.70
2023-01-08T07:44:13.675Z,7.23
2023-01-08T07:46:40.757Z,6.87
2023-01-08T07:49:08.006Z,6.83
2023-01-08T07:51:35.109Z,7.23
2023-01-08T07:54:02.080Z,7.00
2023-01-08T07:56:29.111Z,6.90
2023-01-08T07:58:56.664Z,6.20
2023-01-08T08:01:24.277Z,6.07
2023-01-08T08:03:51.285Z,6.37
2023-01-08T08:06:18.385Z,7.10
2023-01-08T08:08:45.700Z,6.67
2023-01-08T08:11:12.940Z,7.27
2023-01-08T08:13:44.869Z,7.70
2023-01-08T08:16:12.947Z,7.20
2023-01-08T08:18:40.123Z,7.40
2023-01-08T08:21:07.600Z,7.07
2023-01-08T08:23:36.599Z,5.40
2023-01-08T08:26:04.729Z,7.17
2023-01-08T08:28:31.690Z,6.50
2023-01-08T08:30:58.747Z,6.70
2023-01-08T08:33:25.788Z,6.30
2023-01-08T08:35:52.742Z,6.70
2023-01-08T08:38:20.780Z,7.00
2023-01-08T08:40:48.511Z,6.87
2023-01-08T08:43:15.516Z,6.67
2023-01-08T08:45:42.492Z,7.20
2023-01-08T08:48:09.504Z,6.53
2023-01-08T08:50:36.475Z,6.90
2023-01-08T08:53:05.426Z,6.50
2023-01-08T08:55:33.460Z,5.60
2023-01-08T08:58:06.214Z,6.00
2023-01-08T09:00:33.354Z,6.03
2023-01-08T09:03:00.560Z,6.83
2023-01-08T09:05:27.793Z,6.70
2023-01-08T09:07:54.753Z,7.73
2023-01-08T09:10:23.121Z,7.80
2023-01-08T09:12:50.300Z,6.80
2023-01-08T09:15:17.426Z,7.03
2023-01-08T09:17:44.442Z,6.37
2023-01-08T09:20:12.289Z,7.00
2023-01-08T09:22:39.285Z,6.83
2023-01-08T09:25:06.456Z,7.83
2023-01-08T09:27:33.423Z,7.93
2023-01-08T09:30:00.423Z,6.30
2023-01-08T09:32:27.460Z,8.10
2023-01-08T09:34:54.442Z,8.10
2023-01-08T09:37:23.401Z,8.33
2023-01-08T09:39:57.670Z,7.97
2023-01-08T09:42:31.866Z,6.97
2023-01-08T09:45:01.961Z,7.83
2023-01-08T09:47:39.565Z,8.63
2023-01-08T09:50:13.539Z,7.82
2023-01-08T09:52:43.472Z,8.43
2023-01-08T09:55:14.478Z,7.73
2023-01-08T09:57:42.158Z,7.50
2023-01-08T10:00:17.630Z,8.73
2023-01-08T10:02:45.154Z,8.07
2023-01-08T10:05:17.017Z,8.30
2023-01-08T10:07:45.235Z,8.33
2023-01-08T10:10:16.915Z,8.27
2023-01-08T10:12:44.167Z,8.63
2023-01-08T10:15:17.423Z,8.37
2023-01-08T10:18:02.957Z,8.27
2023-01-08T10:20:30.999Z,7.47
2023-01-08T10:23:10.065Z,8.77
2023-01-08T10:25:50.553Z,8.00
2023-01-08T10:28:26.571Z,8.00
2023-01-08T10:30:58.880Z,7.57
2023-01-08T10:33:40.854Z,9.83
2023-01-08T10:36:10.857Z,9.67
2023-01-08T10:38:50.814Z,9.63
2023-01-08T10:41:18.651Z,8.37
2023-01-08T10:43:52.125Z,7.93
2023-01-08T10:46:50.975Z,7.07
2023-01-08T10:49:54.848Z,9.47
2023-01-08T10:52:28.532Z,9.57
2023-01-08T10:54:56.130Z,9.40
2023-01-08T10:57:25.203Z,9.60
2023-01-08T10:59:52.255Z,9.67
2023-01-08T11:02:38.423Z,10.67
2023-01-08T11:05:08.847Z,10.25
2023-01-08T11:07:36.050Z,8.83
2023-01-08T11:10:05.067Z,9.10
2023-01-08T11:12:35.775Z,8.63
2023-01-08T11:15:05.418Z,9.13
2023-01-08T11:17:33.885Z,10.47
2023-01-08T11:20:09.825Z,9.60
2023-01-08T11:22:36.842Z,9.40
2023-01-08T11:25:13.941Z,8.13
2023-01-08T11:27:45.249Z,8.53
2023-01-08T11:30:21.552Z,9.10
2023-01-08T11:33:04.836Z,8.98
2023-01-08T11:35:37.908Z,8.73
2023-01-08T11:38:07.029Z,9.27
2023-01-08T11:40:49.514Z,8.20
2023-01-08T11:43:38.492Z,8.13
2023-01-08T11:46:50.896Z,7.50
2023-01-08T11:49:42.483Z,7.67
2023-01-08T11:52:34.591Z,7.67
2023-01-08T11:55:07.734Z,7.37
2023-01-08T11:58:05.429Z,7.53
2023-01-08T12:00:49.655Z,9.20
2023-01-08T12:03:31.110Z,9.30
2023-01-08T12:06:32.137Z,8.07
2023-01-08T12:09:17.790Z,8.77
2023-01-08T12:11:57.497Z,9.20
2023-01-08T12:14:42.965Z,8.50
2023-01-08T12:17:24.935Z,9.07
2023-01-08T12:20:14.141Z,7.80
2023-01-08T12:22:59.536Z,8.37
2023-01-08T12:25:34.202Z,7.87
2023-01-08T12:28:10.352Z,9.23
2023-01-08T12:31:16.270Z,9.00
2023-01-08T12:33:55.019Z,9.63
2023-01-08T12:36:30.833Z,9.13
2023-01-08T12:39:08.661Z,8.50
2023-01-08T12:41:37.847Z,8.20
2023-01-08T12:44:10.321Z,8.80
2023-01-08T12:46:42.297Z,8.97
2023-01-08T12:49:14.515Z,9.80
2023-01-08T12:51:48.801Z,9.30
2023-01-08T12:54:45.629Z,10.47
2023-01-08T12:57:22.950Z,9.83
2023-01-08T13:00:47.360Z,9.90
2023-01-08T13:03:22.723Z,10.30
2023-01-08T13:05:50.548Z,10.63
2023-01-08T13:08:36.735Z,10.10
2023-01-08T13:11:05.527Z,11.57
2023-01-08T13:13:36.980Z,10.30
2023-01-08T13:16:17.359Z,13.87
2023-01-08T13:19:04.798Z,13.73
2023-01-08T13:21:38.534Z,13.57
2023-01-08T13:24:44.479Z,14.30
2023-01-08T13:27:18.895Z,14.17
2023-01-08T13:29:50.783Z,13.27
2023-01-08T13:32:48.652Z,12.87
2023-01-08T13:35:15.837Z,13.90
2023-01-08T13:37:44.212Z,12.10
2023-01-08T13:40:46.025Z,11.70
2023-01-08T13:43:21.556Z,13.00
2023-01-08T13:46:16.887Z,12.20
2023-01-08T13:49:19.652Z,13.10
2023-01-08T13:51:47.658Z,11.00
2023-01-08T13:54:17.658Z,16.70
2023-01-08T13:56:54.036Z,13.50
2023-01-08T13:59:29.782Z,12.90
2023-01-08T14:01:58.048Z,11.97
2023-01-08T14:04:25.386Z,12.77
2023-01-08T14:06:52.690Z,11.67
2023-01-08T14:09:25.389Z,12.73
2023-01-08T14:11:56.135Z,13.87
2023-01-08T14:14:24.545Z,13.77
2023-01-08T14:16:53.452Z,13.07
2023-01-08T14:19:24.023Z,13.63
2023-01-08T14:21:58.336Z,12.13
2023-01-08T14:24:26.439Z,13.37
2023-01-08T14:26:54.467Z,13.83
2023-01-08T14:29:24.287Z,15.17
2023-01-08T14:31:56.667Z,15.83
2023-01-08T14:34:27.133Z,15.63
2023-01-08T14:36:56.250Z,17.27
2023-01-08T14:39:25.840Z,16.00
2023-01-08T14:42:13.871Z,16.93
2023-01-08T14:44:44.504Z,14.80
2023-01-08T14:47:19.308Z,16.33
2023-01-08T14:49:53.833Z,14.57
2023-01-08T14:52:21.360Z,14.27
2023-01-08T14:55:03.299Z,16.00
2023-01-08T14:57:31.593Z,16.43
2023-01-08T15:00:01.862Z,16.27
2023-01-08T15:02:35.708Z,16.97
2023-01-08T15:05:24.231Z,14.87
2023-01-08T15:08:03.864Z,14.53
2023-01-08T15:10:38.433Z,15.87
2023-01-08T15:13:08.620Z,15.43
2023-01-08T15:15:41.783Z,15.93
2023-01-08T15:18:12.009Z,14.13
2023-01-08T15:20:39.215Z,14.70
2023-01-08T15:23:06.191Z,16.73
2023-01-08T15:25:33.259Z,14.13
2023-01-08T15:28:03.139Z,16.37
2023-01-08T15:30:36.762Z,16.23
2023-01-08T15:33:18.068Z,16.10
2023-01-08T15:35:46.118Z,16.30
2023-01-08T15:38:13.804Z,17.20
2023-01-08T15:40:41.255Z,17.47
2023-01-08T15:43:13.731Z,16.17
2023-01-08T15:45:46.630Z,14.67
2023-01-08T15:48:14.301Z,15.50
2023-01-08T15:50:43.863Z,15.07
2023-01-08T15:53:18.887Z,16.37
2023-01-08T15:55:47.066Z,17.03
2023-01-08T15:58:15.477Z,14.27
2023-01-08T16:00:44.628Z,15.47
2023-01-08T16:03:15.794Z,16.70
2023-01-08T16:05:42.851Z,15.90
2023-01-08T16:08:11.131Z,16.13
2023-01-08T16:10:38.371Z,15.70
2023-01-08T16:13:05.377Z,15.97
2023-01-08T16:15:32.372Z,15.63
2023-01-08T16:17:59.733Z,14.33
2023-01-08T16:20:26.918Z,16.07
2023-01-08T16:22:55.057Z,13.50
2023-01-08T16:25:22.209Z,15.70
2023-01-08T16:27:49.236Z,15.23
2023-01-08T16:30:16.711Z,15.33
2023-01-08T16:32:44.155Z,15.13
2023-01-08T16:35:11.752Z,16.90
2023-01-08T16:37:39.479Z,17.03
2023-01-08T16:40:07.559Z,18.00
2023-01-08T16:42:34.581Z,17.10
2023-01-08T16:45:01.635Z,20.60
2023-01-08T16:47:30.875Z,18.87
2023-01-08T16:49:57.916Z,21.03
2023-01-08T16:52:24.948Z,23.47
2023-01-08T16:54:51.899Z,26.40
2023-01-08T16:57:18.928Z,25.77
2023-01-08T16:59:45.981Z,24.10
2023-01-08T17:02:12.967Z,21.77
2023-01-08T17:04:40.114Z,26.23
2023-01-08T17:07:07.425Z,23.20
2023-01-08T17:09:34.678Z,22.27
2023-01-08T17:12:01.726Z,21.60
2023-01-08T17:14:28.931Z,21.40
2023-01-08T17:16:55.917Z,22.27
2023-01-08T17:19:23.158Z,22.37
2023-01-08T17:21:50.818Z,22.27
2023-01-08T17:24:17.917Z,21.37
2023-01-08T17:26:45.354Z,22.63
2023-01-08T17:29:12.528Z,21.03
2023-01-08T17:31:40.337Z,21.63
2023-01-08T17:34:12.066Z,21.53
2023-01-08T17:36:39.392Z,20.57
2023-01-08T17:39:06.852Z,21.07
2023-01-08T17:41:54.629Z,20.53
2023-01-08T17:44:22.677Z,20.37
2023-01-08T17:46:49.925Z,20.10
2023-01-08T17:49:17.278Z,20.17
2023-01-08T17:51:45.999Z,20.67
2023-01-08T17:54:15.417Z,19.17
2023-01-08T17:56:43.413Z,17.70
2023-01-08T17:59:16.088Z,17.67
2023-01-08T18:01:45.363Z,20.07
2023-01-08T18:04:16.037Z,18.13
2023-01-08T18:06:43.526Z,18.33
2023-01-08T18:09:12.695Z,23.63
2023-01-08T18:11:41.117Z,21.77
2023-01-08T18:14:10.418Z,23.00
2023-01-08T18:16:38.186Z,23.70
2023-01-08T18:19:05.556Z,21.77
2023-01-08T18:21:32.762Z,20.17
2023-01-08T18:23:59.942Z,20.43
2023-01-08T18:26:27.255Z,20.57
2023-01-08T18:28:54.312Z,20.47
2023-01-08T18:31:22.697Z,19.87
2023-01-08T18:33:51.731Z,20.40
2023-01-08T18:36:19.667Z,21.93
2023-01-08T18:38:47.056Z,22.20
2023-01-08T18:41:36.311Z,21.83
2023-01-08T18:44:05.569Z,21.27
2023-01-08T18:46:34.258Z,20.93
2023-01-08T18:49:01.398Z,22.83
2023-01-08T18:51:28.682Z,23.10
2023-01-08T18:53:58.831Z,23.07
2023-01-08T18:56:34.638Z,21.67
2023-01-08T18:59:03.560Z,20.88
2023-01-08T19:01:30.911Z,21.07
2023-01-08T19:03:58.317Z,18.93
2023-01-08T19:06:25.793Z,18.13
2023-01-08T19:08:53.033Z,18.80
2023-01-08T19:11:20.519Z,17.07
2023-01-08T19:13:47.575Z,17.87
2023-01-08T19:16:15.999Z,18.23
2023-01-08T19:18:43.155Z,20.03
2023-01-08T19:21:13.584Z,19.37
2023-01-08T19:23:41.010Z,21.30
2023-01-08T19:26:08.351Z,19.17
2023-01-08T19:28:36.090Z,18.47
2023-01-08T19:31:03.587Z,18.00
2023-01-08T19:33:30.739Z,18.80
2023-01-08T19:36:03.266Z,19.50
2023-01-08T19:38:30.526Z,19.67
2023-01-08T19:41:00.299Z,19.17
2023-01-08T19:43:42.492Z,18.50
2023-01-08T19:46:11.930Z,19.50
2023-01-08T19:48:40.336Z,19.27
2023-01-08T19:51:08.813Z,17.50
2023-01-08T19:53:35.889Z,20.17
2023-01-08T19:56:08.913Z,18.57
2023-01-08T19:58:36.153Z,17.47
2023-01-08T20:01:14.300Z,18.50
2023-01-08T20:03:42.408Z,15.33
2023-01-08T20:06:17.438Z,16.10
2023-01-08T20:08:46.330Z,15.73
2023-01-08T20:11:15.870Z,17.13
2023-01-08T20:13:43.561Z,17.33
2023-01-08T20:16:14.176Z,16.47
2023-01-08T20:18:41.812Z,17.10
2023-01-08T20:21:18.339Z,16.57
2023-01-08T20:23:45.614Z,16.73
2023-01-08T20:26:18.080Z,15.37
2023-01-08T20:28:46.079Z,14.60
2023-01-08T20:31:15.780Z,14.10
2023-01-08T20:33:43.635Z,18.33
2023-01-08T20:36:16.760Z,18.83
2023-01-08T20:38:44.719Z,18.97
2023-01-08T20:41:12.190Z,20.03
2023-01-08T20:43:41.045Z,20.43
2023-01-08T20:46:13.969Z,19.07
2023-01-08T20:48:47.706Z,17.53
2023-01-08T20:51:16.533Z,16.10
2023-01-08T20:53:43.604Z,19.37
2023-01-08T20:56:15.188Z,17.83
2023-01-08T20:58:45.064Z,19.17
2023-01-08T21:01:18.384Z,16.97
2023-01-08T21:03:46.154Z,18.13
2023-01-08T21:06:16.362Z,16.13
2023-01-08T21:08:44.847Z,15.13
2023-01-08T21:11:13.640Z,15.97
2023-01-08T21:13:41.174Z,16.47
2023-01-08T21:16:22.690Z,16.73
2023-01-08T21:18:50.559Z,11.80
2023-01-08T21:21:28.785Z,11.07
2023-01-08T21:23:56.828Z,10.37
2023-01-08T21:26:24.429Z,11.70
2023-01-08T21:28:51.493Z,12.13
2023-01-08T21:31:21.314Z,11.77
2023-01-08T21:33:49.977Z,12.73
2023-01-08T21:36:22.789Z,13.50
2023-01-08T21:38:50.251Z,14.30
2023-01-08T21:41:40.698Z,12.57
2023-01-08T21:44:40.274Z,14.27
2023-01-08T21:47:10.366Z,13.43
2023-01-08T21:49:46.969Z,14.10
2023-01-08T21:52:33.436Z,14.43
2023-01-08T21:55:01.761Z,14.40
2023-01-08T21:57:37.484Z,15.97
2023-01-08T22:00:05.290Z,14.23
2023-01-08T22:02:32.897Z,15.83
2023-01-08T22:04:59.893Z,15.93
2023-01-08T22:07:26.881Z,15.40
2023-01-08T22:09:54.181Z,14.93
2023-01-08T22:12:22.991Z,14.73
2023-01-08T22:14:55.443Z,16.27
2023-01-08T22:17:29.359Z,15.53
2023-01-08T22:19:58.083Z,13.77
2023-01-08T22:22:25.134Z,13.80
2023-01-08T22:24:52.497Z,14.77
2023-01-08T22:27:19.632Z,13.63
2023-01-08T22:29:48.285Z,14.33
2023-01-08T22:32:15.329Z,15.20
2023-01-08T22:34:42.482Z,14.63
2023-01-08T22:37:11.744Z,16.37
2023-01-08T22:39:39.987Z,16.20
2023-01-08T22:42:06.957Z,14.40
2023-01-08T22:44:34.123Z,14.10
2023-01-08T22:47:02.824Z,12.80
2023-01-08T22:49:29.971Z,13.77
2023-01-08T22:51:58.801Z,11.07
2023-01-08T22:54:25.901Z,11.67
2023-01-08T22:56:52.895Z,12.70
2023-01-08T22:59:21.439Z,12.70
2023-01-08T23:01:49.581Z,11.33
2023-01-08T23:04:17.109Z,10.80
2023-01-08T23:06:44.179Z,11.53
2023-01-08T23:09:11.505Z,11.67
2023-01-08T23:11:38.461Z,12.10
2023-01-08T23:14:07.927Z,11.17
2023-01-08T23:16:35.322Z,11.70
2023-01-08T23:19:02.319Z,11.17
2023-01-08T23:21:29.355Z,12.63
2023-01-08T23:23:56.673Z,11.47
2023-01-08T23:26:26.956Z,12.40
2023-01-08T23:28:55.875Z,13.03
2023-01-08T23:31:26.410Z,12.77
2023-01-08T23:33:54.130Z,13.63
2023-01-08T23:36:22.114Z,16.30
2023-01-08T23:38:51.948Z,16.00
2023-01-08T23:41:20.713Z,18.13
2023-01-08T23:43:49.343Z,16.63
2023-01-08T23:46:16.953Z,17.07
2023-01-08T23:48:43.958Z,16.33
2023-01-08T23:51:11.039Z,18.67
2023-01-08T23:53:38.028Z,17.93
2023-01-08T23:56:05.452Z,16.77
2023-01-08T23:58:32.534Z,17.13
